Terminal Aerodrome Forecast
Issued by NWS

Home | Current Version | Previous Version | Graphics & Text | Print | Product List | Glossary Off
Versions: 1 2 3 4 5 6 7 8 9 10 11 12 13

000
FTUS43 KFGF 232320
TAFBJI
TAF
KBJI 232320Z 2400/2424 19011G18KT P6SM FEW040
     FM240100 19011KT P6SM SCT040
     FM240600 21006KT P6SM VCTS BKN060CB
     FM240800 24004KT P6SM BKN150
     FM241500 27008KT P6SM SKC
     FM241800 26013G22KT P6SM SCT060=

USA.gov is the U.S. government's official web portal to all federal, state and local government web resources and services.